Time;durP1;ratioP1;P1;durP2;ratioP2;P2;SDS_P1;SDS_P2;PMS_P1;PMS_P2;Temp;Humidity;BMP_temperature;BMP_pressure;BME280_temperature;BME280_humidity;BME280_pressure;Samples;Min_cycle;Max_cycle;Signal;HPM_P1;HPM_P2
2023/04/06 00:01:12;;;;;;;11.15;8.70;;;;;;;-1.46;100.00;61845.50;4932817;29;20190;-83
2023/04/06 00:03:40;;;;;;;9.98;7.55;;;;;;;-1.30;100.00;61868.84;4932846;29;20206;-85
2023/04/06 00:06:07;;;;;;;8.98;7.97;;;;;;;-1.37;100.00;61866.69;4937229;29;20212;-81
2023/04/06 00:08:36;;;;;;;9.60;8.65;;;;;;;-0.99;100.00;61895.06;4928654;29;20244;-83
2023/04/06 00:11:03;;;;;;;11.05;8.57;;;;;;;-1.12;100.00;61887.28;4930784;29;20232;-83
2023/04/06 00:13:30;;;;;;;10.88;8.82;;;;;;;-1.29;100.00;61870.38;4923553;29;20285;-82
2023/04/06 00:15:58;;;;;;;11.65;8.75;;;;;;;-1.33;100.00;61863.28;4930050;29;20202;-81
2023/04/06 00:18:28;;;;;;;11.43;8.45;;;;;;;-1.24;100.00;61868.00;4934255;29;20226;-81
2023/04/06 00:20:56;;;;;;;9.98;8.20;;;;;;;-1.12;100.00;61884.28;4933436;29;20190;-82
2023/04/06 00:23:23;;;;;;;10.20;8.35;;;;;;;-1.40;100.00;61856.13;4934326;29;20226;-80
2023/04/06 00:26:04;;;;;;;15.48;8.40;;;;;;;-1.49;100.00;61844.41;4931263;29;20206;-83
2023/04/06 00:28:31;;;;;;;12.27;9.55;;;;;;;-1.66;100.00;61825.06;4933104;29;20285;-82
2023/04/06 00:30:59;;;;;;;12.88;9.00;;;;;;;-1.51;100.00;61844.88;4933032;29;20429;-81
2023/04/06 00:33:29;;;;;;;13.48;9.82;;;;;;;-1.25;100.00;61868.97;4933373;29;20285;-81
2023/04/06 00:36:00;;;;;;;11.45;9.02;;;;;;;-1.71;100.00;61824.91;4929150;29;20198;-84
2023/04/06 00:38:28;;;;;;;12.48;9.45;;;;;;;-1.32;100.00;61859.84;4932289;29;20277;-81
2023/04/06 00:40:56;;;;;;;9.70;8.45;;;;;;;-1.50;100.00;61843.91;4932398;29;20213;-83
2023/04/06 00:43:24;;;;;;;14.32;8.77;;;;;;;-1.57;100.00;61838.75;4931519;29;22714;-81
2023/04/06 00:45:51;;;;;;;11.05;9.32;;;;;;;-1.27;100.00;61866.94;4934881;29;20202;-83
2023/04/06 00:48:19;;;;;;;12.45;9.25;;;;;;;-1.29;100.00;61872.88;4914182;29;20229;-80
2023/04/06 00:50:47;;;;;;;13.45;9.90;;;;;;;-1.48;100.00;61845.44;4923903;29;20245;-82
2023/04/06 00:53:14;;;;;;;13.18;9.30;;;;;;;-1.29;100.00;61867.38;4929444;29;20245;-82
2023/04/06 00:55:41;;;;;;;12.43;9.70;;;;;;;-1.53;100.00;61843.34;4930382;29;20202;-82
2023/04/06 00:58:10;;;;;;;11.38;8.98;;;;;;;-1.40;100.00;61856.13;4930642;29;20270;-81
2023/04/06 01:00:38;;;;;;;11.60;8.65;;;;;;;-1.23;100.00;61876.03;4936718;29;20202;-83
2023/04/06 01:03:07;;;;;;;10.65;7.80;;;;;;;-1.28;100.00;61863.41;4922242;29;20230;-81
2023/04/06 01:05:39;;;;;;;11.32;8.43;;;;;;;-1.42;100.00;61854.09;4939584;29;20226;-81
2023/04/06 01:08:06;;;;;;;10.85;8.55;;;;;;;-1.45;100.00;61849.03;4935916;29;20269;-81
2023/04/06 01:10:36;;;;;;;10.30;8.30;;;;;;;-1.40;100.00;61854.13;4934504;29;20268;-82
2023/04/06 01:13:03;;;;;;;9.95;8.07;;;;;;;-1.42;100.00;61857.09;4932379;29;20222;-81
2023/04/06 01:15:34;;;;;;;8.85;7.00;;;;;;;-1.34;100.00;61862.25;4937641;29;20210;-81
2023/04/06 01:18:04;;;;;;;10.45;7.30;;;;;;;-1.60;100.00;61833.16;4934991;29;20222;-81
2023/04/06 01:20:31;;;;;;;8.95;7.20;;;;;;;-1.12;100.00;61887.28;4926270;29;20266;-81
2023/04/06 01:23:01;;;;;;;6.80;5.70;;;;;;;-1.39;100.00;61855.16;4939959;29;20285;-82
2023/04/06 01:25:28;;;;;;;7.82;6.40;;;;;;;-1.30;100.00;61869.38;4941509;29;20210;-80
2023/04/06 01:27:55;;;;;;;6.13;5.53;;;;;;;-1.26;100.00;61867.97;4931882;29;20246;-79
2023/04/06 01:30:22;;;;;;;10.40;6.90;;;;;;;-1.11;100.00;61887.78;4934982;29;20206;-82
2023/04/06 01:32:52;;;;;;;9.50;7.25;;;;;;;-1.12;100.00;61884.28;4937236;29;20229;-83
2023/04/06 01:35:22;;;;;;;7.45;6.70;;;;;;;-1.43;100.00;61853.56;4935334;29;20209;-81
2023/04/06 01:37:49;;;;;;;7.90;7.05;;;;;;;-1.18;100.00;61873.66;4933217;29;20242;-81
2023/04/06 01:40:21;;;;;;;7.65;6.40;;;;;;;-1.02;100.00;61889.50;4933547;29;20206;-82
2023/04/06 01:42:48;;;;;;;7.07;6.35;;;;;;;-1.11;100.00;61880.28;4935420;29;20222;-82
2023/04/06 01:45:16;;;;;;;6.50;5.88;;;;;;;-0.97;100.00;61902.13;4935324;29;20222;-84
2023/04/06 01:47:43;;;;;;;7.60;6.65;;;;;;;-1.03;100.00;61888.47;4923120;29;20226;-83
2023/04/06 01:50:11;;;;;;;9.48;6.80;;;;;;;-1.01;100.00;61896.03;4934263;29;20206;-84
2023/04/06 01:52:40;;;;;;;8.55;7.20;;;;;;;-1.32;100.00;61859.31;4939342;29;20253;-83
2023/04/06 01:55:08;;;;;;;8.45;6.93;;;;;;;-1.25;100.00;61874.50;4937146;29;20213;-80
2023/04/06 01:57:39;;;;;;;7.60;5.65;;;;;;;-1.04;100.00;61890.47;4916769;29;20226;-79
2023/04/06 02:00:08;;;;;;;6.97;6.10;;;;;;;-1.09;100.00;61887.34;4932976;29;20392;-82
2023/04/06 02:02:36;;;;;;;7.28;6.50;;;;;;;-1.07;100.00;61886.91;4934919;29;20339;-80
2023/04/06 02:05:03;;;;;;;6.47;5.28;;;;;;;-1.07;100.00;61887.38;4926472;29;20198;-81
2023/04/06 02:07:30;;;;;;;7.78;6.97;;;;;;;-1.06;100.00;61890.94;4914351;29;20250;-80
2023/04/06 02:10:00;;;;;;;8.10;6.78;;;;;;;-1.30;100.00;61869.38;4922027;29;20214;-82
2023/04/06 02:12:27;;;;;;;4.93;4.32;;;;;;;-0.98;100.00;61896.59;4935380;29;20246;-82
2023/04/06 02:14:55;;;;;;;11.20;7.25;;;;;;;-0.96;100.00;61900.63;4930816;29;20237;-81
2023/04/06 02:17:24;;;;;;;6.05;5.25;;;;;;;-0.97;100.00;61900.16;4918659;29;20221;-80
2023/04/06 02:19:51;;;;;;;6.90;6.30;;;;;;;-0.90;100.00;61907.31;4933410;29;20254;-80
2023/04/06 02:22:18;;;;;;;9.38;6.63;;;;;;;-0.91;100.00;61905.75;4939876;29;20227;-80
2023/04/06 02:24:48;;;;;;;6.60;6.00;;;;;;;-0.83;100.00;61916.47;4927912;29;20222;-82
2023/04/06 02:27:16;;;;;;;6.38;5.78;;;;;;;-0.71;100.00;61924.25;4934766;29;20281;-81
2023/04/06 02:29:43;;;;;;;8.68;6.10;;;;;;;-0.73;100.00;61924.72;4933844;29;20205;-80
2023/04/06 02:32:11;;;;;;;6.78;6.05;;;;;;;-0.70;100.00;61927.25;4933901;29;20244;-83
2023/04/06 02:34:38;;;;;;;6.80;6.10;;;;;;;-0.68;100.00;61929.84;4928360;29;20214;-79
2023/04/06 02:37:05;;;;;;;4.68;4.25;;;;;;;-0.52;100.00;61943.69;4931882;29;20257;-80
2023/04/06 02:39:32;;;;;;;7.60;6.00;;;;;;;-0.55;100.00;61943.13;4932557;29;20237;-80
2023/04/06 02:41:59;;;;;;;5.22;4.55;;;;;;;-0.53;100.00;61945.19;4932664;29;20252;-82
2023/04/06 02:44:30;;;;;;;6.35;4.20;;;;;;;-0.63;100.00;61934.44;4930870;29;20213;-80
2023/04/06 02:46:57;;;;;;;6.97;6.25;;;;;;;-0.72;100.00;61928.22;4934076;29;20225;-82
2023/04/06 02:49:26;;;;;;;7.20;6.05;;;;;;;-0.60;100.00;61940.00;4931706;29;20205;-81
2023/04/06 02:51:53;;;;;;;7.43;6.32;;;;;;;-0.59;100.00;61936.56;4930225;29;20238;-80
2023/04/06 02:54:21;;;;;;;7.63;6.57;;;;;;;-0.68;100.00;61927.34;4921191;29;20202;-83
2023/04/06 02:56:49;;;;;;;6.72;4.90;;;;;;;-0.95;100.00;61904.16;4933030;29;20265;-81
2023/04/06 02:59:16;;;;;;;6.10;5.32;;;;;;;-0.50;100.00;61950.75;4932168;29;20206;-83
2023/04/06 03:01:46;;;;;;;5.68;5.18;;;;;;;-0.66;100.00;61936.88;4926767;29;20281;-80
2023/04/06 03:04:13;;;;;;;6.72;5.28;;;;;;;-0.85;100.00;61911.91;4931762;29;20560;-83
2023/04/06 03:06:42;;;;;;;6.32;4.72;;;;;;;-0.54;100.00;61946.16;4932975;29;20226;-79
2023/04/06 03:09:09;;;;;;;6.38;5.07;;;;;;;-0.49;100.00;61948.78;4931694;29;20206;-79
2023/04/06 03:11:36;;;;;;;6.40;5.80;;;;;;;-0.51;100.00;61944.75;4930879;29;20234;-80
2023/04/06 03:14:03;;;;;;;5.75;4.63;;;;;;;-0.59;100.00;61938.53;4932986;29;20202;-80
2023/04/06 03:16:33;;;;;;;8.77;6.20;;;;;;;-0.52;100.00;61946.19;4931664;29;20216;-80
2023/04/06 03:19:00;;;;;;;6.18;5.13;;;;;;;-0.57;100.00;61935.59;4928382;29;20223;-82
2023/04/06 03:21:27;;;;;;;5.03;4.18;;;;;;;-0.52;100.00;61945.72;4929798;29;20206;-83
2023/04/06 03:24:00;;;;;;;6.47;5.85;;;;;;;-0.82;100.00;61909.97;4929831;29;20206;-83
2023/04/06 03:26:27;;;;;;;7.70;6.32;;;;;;;-0.81;100.00;61913.50;4929351;29;20546;-78
2023/04/06 03:28:55;;;;;;;6.40;5.55;;;;;;;-0.48;100.00;61947.28;4930548;29;20202;-80
2023/04/06 03:31:22;;;;;;;6.43;5.30;;;;;;;-0.63;100.00;61934.94;4923891;29;20250;-79
2023/04/06 03:33:49;;;;;;;5.90;5.38;;;;;;;-0.64;100.00;61930.91;4930460;29;20202;-80
2023/04/06 03:36:16;;;;;;;6.10;4.70;;;;;;;-0.71;100.00;61923.75;4931690;29;20273;-81
2023/04/06 03:38:44;;;;;;;7.63;6.10;;;;;;;-0.62;100.00;61935.97;4931983;29;20198;-82
2023/04/06 03:41:12;;;;;;;7.18;5.95;;;;;;;-0.74;100.00;61923.19;4933142;29;20206;-82
2023/04/06 03:43:40;;;;;;;6.88;5.60;;;;;;;-0.54;100.00;61946.66;4932906;29;20397;-81
2023/04/06 03:46:07;;;;;;;7.10;6.13;;;;;;;-0.65;100.00;61932.38;4923314;29;20227;-82
2023/04/06 03:48:34;;;;;;;7.28;5.40;;;;;;;-0.74;100.00;61920.69;4916230;29;20217;-80
2023/04/06 03:51:01;;;;;;;6.63;5.95;;;;;;;-0.75;100.00;61917.66;4929475;29;20198;-83
2023/04/06 03:53:29;;;;;;;6.38;5.38;;;;;;;-0.62;100.00;61937.97;4932626;29;20226;-80
2023/04/06 03:55:56;;;;;;;5.25;4.80;;;;;;;-0.85;100.00;61914.94;4917534;29;20206;-80
2023/04/06 03:58:28;;;;;;;5.55;4.80;;;;;;;-0.62;100.00;61932.97;4927585;29;20225;-82
2023/04/06 04:00:56;;;;;;;3.92;3.60;;;;;;;-0.73;100.00;61924.72;4927706;29;20254;-80
2023/04/06 04:03:23;;;;;;;6.80;4.68;;;;;;;-0.53;100.00;61947.69;4928936;29;20234;-84
2023/04/06 04:05:51;;;;;;;5.35;4.82;;;;;;;-0.54;100.00;61948.66;4931750;29;20245;-80
2023/04/06 04:08:18;;;;;;;4.80;4.40;;;;;;;-0.73;100.00;61922.22;4930902;29;20502;-83
2023/04/06 04:10:44;;;;;;;4.50;4.10;;;;;;;-0.60;100.00;61935.53;4928953;29;20205;-79
2023/04/06 04:13:12;;;;;;;4.88;4.18;;;;;;;-0.49;99.95;61943.78;4919164;29;20237;-79
2023/04/06 04:15:41;;;;;;;5.60;4.90;;;;;;;-0.39;99.44;61954.53;4923464;29;20255;-81
2023/04/06 04:18:08;;;;;;;2.60;2.42;;;;;;;-0.29;98.97;61969.25;4930901;29;20214;-82
2023/04/06 04:20:35;;;;;;;5.53;5.00;;;;;;;-0.55;99.42;61942.63;4930327;29;20238;-83
2023/04/06 04:23:02;;;;;;;4.88;4.53;;;;;;;-0.37;99.54;61964.09;4928948;29;20277;-84
2023/04/06 04:25:30;;;;;;;5.13;4.47;;;;;;;-0.61;98.88;61936.47;4930889;29;20277;-82
2023/04/06 04:27:57;;;;;;;8.63;5.03;;;;;;;-0.22;98.76;61976.94;4930640;29;20222;-83
2023/04/06 04:30:25;;;;;;;6.35;5.07;;;;;;;-0.06;99.15;61992.81;4931855;29;20277;-83
2023/04/06 04:32:54;;;;;;;5.07;4.57;;;;;;;-0.41;98.33;61959.97;4934783;29;20242;-79
2023/04/06 04:35:21;;;;;;;6.78;5.22;;;;;;;-0.07;99.03;61992.31;4936854;29;20269;-81
2023/04/06 04:37:48;;;;;;;8.00;5.50;;;;;;;-0.16;98.05;61980.59;4936637;29;20221;-81
2023/04/06 04:40:16;;;;;;;5.47;4.63;;;;;;;0.16;97.45;62012.34;4937468;29;20214;-83
2023/04/06 04:42:43;;;;;;;8.35;6.57;;;;;;;0.18;97.20;62014.41;4934532;29;20285;-82
2023/04/06 04:45:11;;;;;;;7.05;6.22;;;;;;;0.30;97.67;62024.72;4934006;29;20209;-82
2023/04/06 04:47:38;;;;;;;6.70;5.97;;;;;;;0.19;96.62;62018.44;4933930;29;20545;-83
2023/04/06 04:50:08;;;;;;;5.95;5.32;;;;;;;0.24;97.26;62021.06;4938420;29;20201;-81
2023/04/06 04:52:35;;;;;;;6.72;6.03;;;;;;;0.35;97.14;62034.31;4936741;29;20277;-82
2023/04/06 04:55:03;;;;;;;5.88;5.25;;;;;;;0.13;95.76;62012.28;4933701;29;20273;-82
2023/04/06 04:57:30;;;;;;;11.77;5.70;;;;;;;0.44;96.29;62043.56;4934803;29;20234;-82
2023/04/06 05:00:01;;;;;;;6.00;5.35;;;;;;;0.48;96.57;62047.66;4935025;29;20229;-83
2023/04/06 05:02:28;;;;;;;4.97;4.35;;;;;;;0.33;93.74;62032.78;4934743;29;20237;-81
2023/04/06 05:04:56;;;;;;;5.20;4.60;;;;;;;0.58;92.52;62057.91;4931853;29;20198;-82
2023/04/06 05:07:25;;;;;;;5.07;3.90;;;;;;;0.43;92.72;62045.03;4931800;29;20222;-81
2023/04/06 05:09:55;;;;;;;4.32;3.92;;;;;;;0.27;93.45;62026.13;4931839;29;20202;-83
2023/04/06 05:12:22;;;;;;;4.32;3.92;;;;;;;0.38;93.83;62037.91;4933255;29;20238;-81
2023/04/06 05:14:49;;;;;;;3.88;3.53;;;;;;;0.41;93.01;62043.00;4932624;29;20254;-81
2023/04/06 05:17:17;;;;;;;4.30;4.00;;;;;;;0.49;92.58;62046.69;4934408;29;20473;-83
2023/04/06 05:19:45;;;;;;;4.30;3.90;;;;;;;0.50;92.87;62049.72;4934378;29;20225;-83
2023/04/06 05:22:14;;;;;;;3.30;3.10;;;;;;;0.52;92.17;62052.25;4941372;29;20220;-81
2023/04/06 05:24:42;;;;;;;3.47;3.25;;;;;;;0.58;92.17;62060.41;4927491;29;20203;-83
2023/04/06 05:27:10;;;;;;;3.25;2.92;;;;;;;0.66;92.31;62066.09;4916964;29;20228;-79
2023/04/06 05:29:37;;;;;;;3.40;3.10;;;;;;;0.74;91.37;62074.81;4917574;29;20191;-78
2023/04/06 05:32:05;;;;;;;4.82;3.33;;;;;;;0.82;91.85;62085.53;4914671;29;20306;-81
2023/04/06 05:34:32;;;;;;;4.45;3.97;;;;;;;0.80;92.85;62077.97;4917201;29;20403;-80
2023/04/06 05:37:00;;;;;;;4.90;4.40;;;;;;;0.82;92.66;62085.03;4917356;29;20247;-81
2023/04/06 05:39:27;;;;;;;4.53;4.13;;;;;;;0.86;92.66;62082.13;4917263;29;20203;-80
2023/04/06 05:41:56;;;;;;;3.40;3.20;;;;;;;0.87;91.33;62085.66;4919856;29;20228;-81
2023/04/06 05:44:23;;;;;;;3.47;3.15;;;;;;;0.95;91.35;62098.34;4933466;29;20194;-81
2023/04/06 05:46:50;;;;;;;4.60;4.20;;;;;;;0.92;91.37;62090.78;4934487;29;20229;-80
2023/04/06 05:49:17;;;;;;;5.07;4.22;;;;;;;0.79;91.38;62079.44;4936061;29;20212;-83
2023/04/06 05:51:44;;;;;;;3.60;3.30;;;;;;;0.97;91.02;62095.41;4933096;29;20230;-80
2023/04/06 05:54:11;;;;;;;4.65;4.35;;;;;;;0.84;91.01;62082.59;4935998;29;20206;-81
2023/04/06 05:56:41;;;;;;;3.03;2.83;;;;;;;0.97;91.07;62098.41;4934319;29;20225;-79
2023/04/06 05:59:09;;;;;;;4.55;3.80;;;;;;;1.22;90.47;62120.53;4932866;29;20202;-81
2023/04/06 06:01:37;;;;;;;8.60;3.92;;;;;;;1.09;90.76;62110.22;4914034;29;20222;-79
2023/04/06 06:04:04;;;;;;;4.53;4.00;;;;;;;1.13;90.70;62114.31;4924160;29;20225;-79
2023/04/06 06:06:32;;;;;;;5.18;4.47;;;;;;;0.86;93.27;62082.13;4934726;29;20738;-80
2023/04/06 06:09:00;;;;;;;6.35;4.43;;;;;;;1.01;93.60;62104.50;4932882;29;20217;-80
2023/04/06 06:11:27;;;;;;;8.48;5.95;;;;;;;1.04;93.18;62108.09;4934239;29;20213;-78
2023/04/06 06:13:54;;;;;;;6.35;5.65;;;;;;;1.30;91.72;62129.25;4933855;29;20252;-79
2023/04/06 06:16:23;;;;;;;15.25;9.13;;;;;;;1.26;93.13;62127.66;4934411;29;20198;-80
2023/04/06 06:18:50;;;;;;;17.23;8.32;;;;;;;1.39;92.89;62135.97;4934113;29;20265;-82
2023/04/06 06:21:17;;;;;;;5.03;3.90;;;;;;;1.17;91.66;62123.94;4933577;29;20256;-79
2023/04/06 06:23:47;;;;;;;4.85;3.88;;;;;;;1.42;90.21;62141.03;4941631;29;20232;-79
2023/04/06 06:26:14;;;;;;;6.22;5.60;;;;;;;1.39;91.89;62140.47;4934435;29;20246;-77
2023/04/06 06:28:40;;;;;;;5.30;4.80;;;;;;;1.51;91.14;62150.28;4933270;29;20206;-78
2023/04/06 06:31:08;;;;;;;7.07;4.93;;;;;;;1.46;91.00;62152.69;4934358;29;20257;-79
2023/04/06 06:33:36;;;;;;;4.90;4.50;;;;;;;1.36;89.92;62140.44;4933278;29;20241;-79
2023/04/06 06:36:03;;;;;;;5.20;4.70;;;;;;;1.50;90.88;62154.78;4933001;29;20290;-82
2023/04/06 06:38:30;;;;;;;6.13;4.80;;;;;;;1.51;89.95;62150.81;4914007;29;20230;-78
2023/04/06 06:40:59;;;;;;;5.82;4.03;;;;;;;1.71;87.90;62175.84;4913540;29;20201;-80
2023/04/06 06:43:26;;;;;;;4.45;4.05;;;;;;;1.82;85.96;62185.13;4919575;29;20241;-82
2023/04/06 06:45:53;;;;;;;4.15;3.72;;;;;;;2.02;85.84;62205.66;4913830;29;20199;-79
2023/04/06 06:48:20;;;;;;;6.78;4.30;;;;;;;2.14;83.53;62220.47;4913338;29;20452;-79
2023/04/06 06:50:50;;;;;;;3.78;3.47;;;;;;;1.99;83.55;62205.09;4914407;29;20191;-78
2023/04/06 06:53:17;;;;;;;4.10;3.67;;;;;;;2.07;83.65;62210.28;4916524;29;20408;-79
2023/04/06 06:55:44;;;;;;;5.22;4.72;;;;;;;2.05;85.02;62210.75;4922461;29;20216;-81
2023/04/06 06:58:12;;;;;;;5.53;4.95;;;;;;;2.22;85.94;62226.19;4932520;29;20222;-78
2023/04/06 07:00:39;;;;;;;5.22;4.22;;;;;;;2.20;84.08;62223.63;4934309;29;20265;-81
2023/04/06 07:03:06;;;;;;;3.88;3.58;;;;;;;2.30;82.19;62233.88;4935723;29;20234;-80
2023/04/06 07:05:34;;;;;;;3.33;3.13;;;;;;;1.95;84.01;62197.97;4932062;29;20205;-81
2023/04/06 07:08:02;;;;;;;3.00;2.78;;;;;;;2.16;83.83;62219.50;4918719;29;20666;-80
2023/04/06 07:10:29;;;;;;;4.47;4.10;;;;;;;2.22;83.76;62220.66;4914626;29;20203;-80
2023/04/06 07:12:56;;;;;;;4.60;4.20;;;;;;;2.31;83.76;62234.94;4913915;29;20246;-82
2023/04/06 07:15:24;;;;;;;4.97;4.22;;;;;;;2.48;83.94;62256.91;4916662;29;20213;-80
2023/04/06 07:17:52;;;;;;;4.70;4.30;;;;;;;2.11;86.72;62209.34;4933863;29;20237;-79
2023/04/06 07:20:19;;;;;;;4.85;3.92;;;;;;;2.31;84.49;62235.44;4934205;29;20394;-80
2023/04/06 07:22:46;;;;;;;5.95;5.35;;;;;;;2.35;85.41;62239.53;4936098;29;20542;-80
2023/04/06 07:25:14;;;;;;;5.20;4.13;;;;;;;2.03;84.93;62206.69;4936975;29;20492;-84
2023/04/06 07:27:42;;;;;;;4.65;3.97;;;;;;;2.07;85.55;62213.28;4931449;29;20289;-80
2023/04/06 07:30:09;;;;;;;4.22;3.85;;;;;;;2.38;83.57;62242.13;4931509;29;20478;-80
2023/04/06 07:32:39;;;;;;;5.63;5.22;;;;;;;2.58;84.09;62262.13;4931589;29;20261;-81
2023/04/06 07:35:06;;;;;;;5.65;4.53;;;;;;;2.19;84.70;62220.09;4935081;29;20198;-80
2023/04/06 07:37:33;;;;;;;8.05;6.43;;;;;;;2.31;85.45;62230.41;4935443;29;20214;-83
2023/04/06 07:40:00;;;;;;;5.18;4.70;;;;;;;2.56;86.29;62260.59;4933622;29;20206;-81
2023/04/06 07:42:29;;;;;;;4.53;3.97;;;;;;;2.82;80.49;62284.28;4922646;29;20245;-79
2023/04/06 07:44:56;;;;;;;6.50;5.32;;;;;;;2.80;82.62;62282.75;4914263;29;20265;-79
2023/04/06 07:47:24;;;;;;;5.47;4.97;;;;;;;2.49;83.69;62250.38;4912086;29;20241;-81
2023/04/06 07:49:52;;;;;;;7.50;5.38;;;;;;;2.60;83.49;62261.69;4911536;29;20210;-81
2023/04/06 07:52:19;;;;;;;6.38;4.28;;;;;;;2.70;83.06;62274.47;4912331;29;20223;-79
2023/04/06 07:54:46;;;;;;;5.85;4.97;;;;;;;2.49;82.03;62253.41;4913337;29;20305;-81
2023/04/06 07:57:13;;;;;;;5.00;4.50;;;;;;;2.62;84.01;62263.75;4919873;29;20234;-82
2023/04/06 07:59:41;;;;;;;7.15;5.43;;;;;;;2.54;81.79;62253.53;4931071;29;20198;-81
2023/04/06 08:02:08;;;;;;;5.03;4.10;;;;;;;3.09;80.33;62309.53;4934585;29;20234;-80
2023/04/06 08:04:37;;;;;;;4.25;3.95;;;;;;;3.08;81.31;62313.53;4931606;29;20425;-79
2023/04/06 08:07:04;;;;;;;4.50;4.10;;;;;;;3.08;78.82;62311.00;4931375;29;20300;-79
2023/04/06 08:09:35;;;;;;;4.60;4.18;;;;;;;3.44;75.46;62350.53;4930519;29;20210;-81
2023/04/06 08:12:03;;;;;;;4.65;4.15;;;;;;;3.52;77.39;62353.72;4932778;29;20225;-79
2023/04/06 08:14:30;;;;;;;3.53;3.22;;;;;;;3.52;75.39;62361.78;4933561;29;20494;-81
2023/04/06 08:16:58;;;;;;;6.82;4.78;;;;;;;3.72;73.11;62384.34;4922367;29;20229;-79
2023/04/06 08:19:25;;;;;;;4.80;4.32;;;;;;;3.82;71.41;62389.59;4914504;29;20270;-80
2023/04/06 08:21:53;;;;;;;4.00;3.65;;;;;;;3.89;71.02;62394.28;4917054;29;20226;-82
2023/04/06 08:24:20;;;;;;;5.03;4.15;;;;;;;3.84;69.72;62391.66;4917859;29;20205;-79
2023/04/06 08:26:47;;;;;;;4.18;3.88;;;;;;;3.75;71.47;62377.38;4916519;29;20237;-82
2023/04/06 08:29:14;;;;;;;7.80;5.07;;;;;;;3.34;73.99;62342.75;4916873;29;20218;-78
2023/04/06 08:31:41;;;;;;;3.92;3.63;;;;;;;3.43;72.12;62355.03;4915080;29;20222;-81
2023/04/06 08:34:10;;;;;;;7.20;3.97;;;;;;;3.00;75.59;62303.28;4918344;29;20238;-81
2023/04/06 08:36:38;;;;;;;5.10;4.60;;;;;;;3.24;74.03;62329.97;4917006;29;20246;-80
2023/04/06 08:39:05;;;;;;;3.88;3.63;;;;;;;3.54;71.95;62360.81;4915292;29;20214;-79
2023/04/06 08:41:32;;;;;;;5.68;4.20;;;;;;;3.56;70.47;62362.84;4911480;29;20237;-81
2023/04/06 08:44:00;;;;;;;4.72;4.13;;;;;;;3.46;71.80;62348.06;4917467;29;20263;-80
2023/04/06 08:46:30;;;;;;;4.80;4.38;;;;;;;3.29;71.84;62337.63;4912872;29;20251;-81
2023/04/06 08:48:57;;;;;;;4.68;4.13;;;;;;;3.07;75.77;62320.53;4913971;29;20207;-79
2023/04/06 08:51:26;;;;;;;5.50;5.00;;;;;;;2.86;76.70;62291.44;4911639;29;20211;-81
2023/04/06 08:53:55;;;;;;;5.97;4.70;;;;;;;3.22;75.96;62328.44;4912416;29;20235;-80
2023/04/06 08:56:23;;;;;;;5.05;4.57;;;;;;;3.28;75.87;62332.06;4911608;29;20206;-80
2023/04/06 08:58:51;;;;;;;5.35;4.85;;;;;;;3.19;75.92;62324.84;4927433;29;20440;-82
2023/04/06 09:01:22;;;;;;;6.95;5.47;;;;;;;3.10;77.82;62316.09;4930790;29;20206;-80
2023/04/06 09:03:51;;;;;;;5.90;3.78;;;;;;;3.31;73.03;62337.66;4931271;29;20241;-80
2023/04/06 09:06:19;;;;;;;4.60;4.15;;;;;;;3.48;70.60;62359.69;4930987;29;20233;-81
2023/04/06 09:08:50;;;;;;;4.88;4.32;;;;;;;3.61;74.87;62372.53;4931895;29;20237;-81
2023/04/06 09:11:17;;;;;;;5.10;4.32;;;;;;;3.79;69.43;62386.53;4932007;29;20202;-79
2023/04/06 09:13:49;;;;;;;5.15;4.65;;;;;;;3.91;68.38;62400.88;4931993;29;20245;-80
2023/04/06 09:16:16;;;;;;;5.10;4.55;;;;;;;3.82;68.97;62391.59;4939984;29;20202;-79
2023/04/06 09:18:44;;;;;;;5.18;4.63;;;;;;;3.81;70.95;62388.06;4942867;29;20224;-82
2023/04/06 09:21:12;;;;;;;5.72;5.22;;;;;;;3.98;71.84;62405.53;4943081;29;20201;-79
2023/04/06 09:23:39;;;;;;;4.72;4.22;;;;;;;3.83;69.30;62392.63;4940664;29;20209;-77
2023/04/06 09:26:10;;;;;;;4.93;4.50;;;;;;;3.98;67.58;62405.53;4945180;29;20248;-79
2023/04/06 09:28:46;;;;;;;5.13;4.63;;;;;;;4.07;67.00;62415.31;4935132;29;20369;-80
2023/04/06 09:31:13;;;;;;;4.88;4.32;;;;;;;4.19;69.90;62427.66;4932268;29;20276;-84
2023/04/06 09:33:43;;;;;;;5.65;4.10;;;;;;;4.25;65.61;62436.34;4930429;29;20240;-82
2023/04/06 09:36:10;;;;;;;3.05;2.83;;;;;;;4.38;66.25;62446.69;4934013;29;20198;-78
2023/04/06 09:38:53;;;;;;;4.35;3.92;;;;;;;4.34;66.33;62445.09;4933344;29;20214;-80
2023/04/06 09:41:27;;;;;;;8.63;5.15;;;;;;;4.43;66.53;62451.84;4933067;29;20214;-81
2023/04/06 09:44:04;;;;;;;4.65;3.70;;;;;;;4.36;63.61;62447.69;4934535;29;20194;-78
2023/04/06 09:46:34;;;;;;;8.25;4.35;;;;;;;4.53;63.47;62457.63;4934683;29;20197;-79
2023/04/06 09:49:02;;;;;;;4.57;4.20;;;;;;;4.50;64.24;62457.03;4933635;29;20237;-81
2023/04/06 09:51:31;;;;;;;5.65;5.13;;;;;;;4.39;66.16;62445.19;4933879;29;20226;-79
2023/04/06 09:54:02;;;;;;;6.45;5.45;;;;;;;4.61;66.86;62470.88;4934156;29;20547;-82
2023/04/06 09:56:34;;;;;;;5.68;5.10;;;;;;;4.27;66.36;62435.91;4933811;29;20266;-79
2023/04/06 09:59:06;;;;;;;5.47;4.97;;;;;;;4.42;65.45;62448.28;4936235;29;20194;-77
2023/04/06 10:01:36;;;;;;;5.30;4.80;;;;;;;4.49;63.97;62461.06;4933906;29;20277;-82
2023/04/06 10:04:14;;;;;;;5.35;4.85;;;;;;;4.50;66.26;62462.06;4933540;29;20197;-79
2023/04/06 10:06:45;;;;;;;5.15;4.65;;;;;;;4.51;64.22;62463.13;4933224;29;20250;-81
2023/04/06 10:09:14;;;;;;;6.53;5.55;;;;;;;4.00;69.29;62410.13;4922702;29;20209;-79
2023/04/06 10:11:43;;;;;;;5.70;5.20;;;;;;;3.99;68.15;62404.56;4925759;29;20262;-80
2023/04/06 10:14:12;;;;;;;6.60;4.75;;;;;;;4.10;68.47;62420.94;4934807;29;20229;-81
2023/04/06 10:16:42;;;;;;;8.18;5.72;;;;;;;4.45;67.42;62451.88;4935522;29;20233;-83
2023/04/06 10:19:17;;;;;;;5.75;5.15;;;;;;;4.58;65.13;62469.81;4932153;29;20210;-85
2023/04/06 10:21:51;;;;;;;6.22;5.63;;;;;;;4.44;64.69;62450.88;4933142;29;20602;-80
2023/04/06 10:24:18;;;;;;;5.38;4.97;;;;;;;4.82;62.74;62488.94;4932815;29;20238;-79
2023/04/06 10:26:58;;;;;;;6.22;5.63;;;;;;;4.77;60.53;62489.34;4930841;29;20342;-80
2023/04/06 10:29:25;;;;;;;7.22;6.22;;;;;;;4.79;64.79;62485.84;4931509;29;20201;-80
2023/04/06 10:31:55;;;;;;;7.75;6.13;;;;;;;4.64;63.90;62473.97;4936177;29;20421;-83
2023/04/06 10:34:22;;;;;;;5.38;4.72;;;;;;;4.51;64.58;62463.13;4931565;29;20234;-82
2023/04/06 10:36:50;;;;;;;6.57;5.00;;;;;;;4.43;63.70;62451.84;4925677;29;20246;-82
2023/04/06 10:39:27;;;;;;;5.95;5.35;;;;;;;4.63;63.04;62472.44;4936902;29;20209;-83
2023/04/06 10:41:56;;;;;;;5.97;5.38;;;;;;;4.53;63.06;62462.66;4916560;29;20226;-81
2023/04/06 10:44:24;;;;;;;11.68;6.65;;;;;;;4.43;65.20;62449.31;4917195;29;20218;-81
2023/04/06 10:46:56;;;;;;;6.97;6.28;;;;;;;4.60;64.26;62466.81;4927139;29;20241;-79
2023/04/06 10:49:23;;;;;;;7.38;6.45;;;;;;;4.58;62.96;62464.75;4935028;29;20210;-82
2023/04/06 10:51:54;;;;;;;6.10;5.60;;;;;;;4.87;64.45;62499.16;4932688;29;20715;-81
2023/04/06 10:54:23;;;;;;;7.68;6.95;;;;;;;4.97;61.61;62504.41;4926420;29;20234;-82
2023/04/06 10:56:50;;;;;;;5.40;4.85;;;;;;;5.02;60.22;62515.09;4932380;29;20226;-79
2023/04/06 10:59:22;;;;;;;6.88;6.18;;;;;;;4.91;60.71;62503.25;4935501;29;20209;-83
2023/04/06 11:01:50;;;;;;;8.88;6.00;;;;;;;4.50;63.53;62461.56;4934052;29;20290;-80
2023/04/06 11:04:19;;;;;;;8.00;7.20;;;;;;;4.56;64.09;62468.25;4933318;29;20202;-79
2023/04/06 11:06:51;;;;;;;10.32;6.72;;;;;;;4.85;63.22;62494.56;4920739;29;20291;-80
2023/04/06 11:09:26;;;;;;;8.60;7.30;;;;;;;4.77;64.65;62489.34;4916927;29;20195;-82
2023/04/06 11:11:55;;;;;;;7.75;6.95;;;;;;;4.45;66.61;62454.41;4915963;29;20222;-80
2023/04/06 11:14:24;;;;;;;8.55;6.78;;;;;;;3.95;67.86;62399.94;4936584;29;20253;-81
2023/04/06 11:16:51;;;;;;;7.00;6.00;;;;;;;3.67;70.67;62373.66;4933314;29;20226;-80
2023/04/06 11:19:19;;;;;;;6.65;5.63;;;;;;;3.87;68.21;62392.22;4933435;29;20291;-81
2023/04/06 11:21:48;;;;;;;8.80;6.43;;;;;;;3.86;68.71;62391.19;4928733;29;20233;-79
2023/04/06 11:24:17;;;;;;;7.88;6.90;;;;;;;3.79;70.45;62384.00;4942993;29;20265;-81
2023/04/06 11:26:47;;;;;;;6.93;6.22;;;;;;;4.02;66.63;62412.69;4934533;29;20240;-82
2023/04/06 11:29:14;;;;;;;7.10;6.40;;;;;;;4.29;67.38;62435.44;4933727;29;20204;-81
2023/04/06 11:31:46;;;;;;;9.63;6.97;;;;;;;4.47;65.19;62456.47;4929166;29;20233;-83
2023/04/06 11:34:13;;;;;;;7.55;5.95;;;;;;;4.15;65.31;62423.03;4926568;29;20246;-80
2023/04/06 11:36:45;;;;;;;6.45;5.85;;;;;;;4.06;67.96;62413.78;4934209;29;20293;-80
2023/04/06 11:39:14;;;;;;;7.78;6.55;;;;;;;4.35;66.84;62449.16;4935663;29;20257;-81